createdAt,value
2019-05-19T00:02:07.761Z,26.80
2019-05-19T00:04:36.975Z,27.58
2019-05-19T00:07:06.109Z,26.75
2019-05-19T00:09:35.213Z,26.60
2019-05-19T00:12:04.979Z,27.25
2019-05-19T00:14:34.164Z,27.37
2019-05-19T00:17:03.331Z,24.57
2019-05-19T00:19:32.517Z,24.60
2019-05-19T00:22:01.687Z,24.15
2019-05-19T00:24:30.852Z,22.17
2019-05-19T00:27:00.039Z,22.85
2019-05-19T00:29:29.131Z,23.73
2019-05-19T00:31:58.212Z,22.87
2019-05-19T00:34:27.326Z,23.05
2019-05-19T00:36:56.494Z,21.52
2019-05-19T00:39:25.701Z,20.68
2019-05-19T00:41:54.894Z,21.73
2019-05-19T00:44:24.134Z,21.17
2019-05-19T00:46:53.389Z,20.80
2019-05-19T00:49:22.594Z,21.20
2019-05-19T00:51:51.820Z,19.57
2019-05-19T00:54:21.042Z,20.12
2019-05-19T00:56:50.941Z,19.52
2019-05-19T00:59:20.594Z,20.00
2019-05-19T01:01:49.751Z,19.02
2019-05-19T01:04:19.216Z,18.15
2019-05-19T01:06:48.298Z,19.90
2019-05-19T01:09:17.426Z,19.95
2019-05-19T01:11:46.588Z,19.50
2019-05-19T01:14:15.762Z,19.42
2019-05-19T01:16:44.933Z,19.07
2019-05-19T01:19:14.190Z,19.70
2019-05-19T01:21:44.542Z,18.48
2019-05-19T01:24:13.709Z,18.98
2019-05-19T01:26:42.834Z,19.45
2019-05-19T01:29:12.000Z,19.85
2019-05-19T01:31:41.245Z,18.82
2019-05-19T01:34:10.407Z,19.32
2019-05-19T01:36:39.570Z,18.60
2019-05-19T01:39:08.751Z,19.10
2019-05-19T01:41:37.850Z,19.50
2019-05-19T01:44:07.017Z,19.30
2019-05-19T01:46:36.208Z,19.57
2019-05-19T01:49:05.397Z,18.67
2019-05-19T01:51:34.577Z,18.75
2019-05-19T01:54:03.732Z,18.70
2019-05-19T01:56:32.925Z,18.82
2019-05-19T01:59:02.091Z,19.02
2019-05-19T02:01:31.286Z,19.32
2019-05-19T02:04:00.448Z,18.32
2019-05-19T02:06:29.527Z,19.65
2019-05-19T02:08:58.618Z,19.45
2019-05-19T02:11:27.790Z,19.17
2019-05-19T02:13:56.928Z,19.57
2019-05-19T02:16:26.027Z,18.67
2019-05-19T02:18:55.125Z,18.60
2019-05-19T02:21:24.281Z,17.75
2019-05-19T02:23:53.407Z,18.98
2019-05-19T02:26:22.572Z,19.40
2019-05-19T02:28:51.666Z,19.15
2019-05-19T02:31:20.977Z,18.65
2019-05-19T02:33:50.146Z,18.95
2019-05-19T02:36:19.324Z,18.27
2019-05-19T02:38:48.496Z,18.75
2019-05-19T02:41:20.306Z,19.17
2019-05-19T02:43:53.079Z,19.25
2019-05-19T02:46:23.188Z,20.35
2019-05-19T02:48:54.525Z,20.12
2019-05-19T02:51:26.476Z,20.15
2019-05-19T02:53:56.445Z,19.45
2019-05-19T02:56:26.907Z,20.00
2019-05-19T02:58:58.511Z,20.97
2019-05-19T03:01:27.942Z,21.27
2019-05-19T03:03:57.108Z,21.75
2019-05-19T03:06:41.460Z,21.60
2019-05-19T03:09:10.631Z,20.12
2019-05-19T03:11:39.802Z,20.00
2019-05-19T03:14:08.918Z,20.97
2019-05-19T03:16:38.007Z,20.57
2019-05-19T03:19:07.107Z,19.35
2019-05-19T03:21:36.233Z,19.50
2019-05-19T03:24:05.395Z,20.92
2019-05-19T03:26:34.499Z,21.35
2019-05-19T03:29:03.846Z,20.02
2019-05-19T03:31:34.622Z,21.85
2019-05-19T03:34:05.027Z,20.77
2019-05-19T03:36:34.193Z,20.85
2019-05-19T03:39:03.924Z,20.57
2019-05-19T03:41:33.105Z,21.65
2019-05-19T03:44:02.279Z,20.23
2019-05-19T03:46:31.434Z,20.82
2019-05-19T03:49:00.621Z,21.65
2019-05-19T03:51:31.637Z,21.87
2019-05-19T03:54:00.600Z,22.62
2019-05-19T03:56:29.781Z,22.62
2019-05-19T03:58:58.932Z,22.95
2019-05-19T04:01:28.112Z,21.17
2019-05-19T04:03:57.285Z,22.15
2019-05-19T04:06:26.382Z,19.15
2019-05-19T04:08:55.583Z,20.88
2019-05-19T04:11:24.741Z,21.25
2019-05-19T04:13:53.896Z,22.07
2019-05-19T04:16:23.080Z,21.33
2019-05-19T04:18:52.236Z,20.45
2019-05-19T04:21:21.411Z,22.05
2019-05-19T04:23:50.526Z,21.40
2019-05-19T04:26:19.670Z,20.88
2019-05-19T04:28:48.770Z,21.40
2019-05-19T04:31:17.858Z,21.70
2019-05-19T04:33:47.031Z,20.62
2019-05-19T04:36:16.194Z,21.93
2019-05-19T04:38:45.360Z,21.05
2019-05-19T04:41:14.514Z,21.42
2019-05-19T04:43:43.699Z,20.65
2019-05-19T04:46:12.857Z,20.57
2019-05-19T04:48:41.974Z,21.73
2019-05-19T04:51:11.135Z,21.15
2019-05-19T04:53:40.301Z,20.82
2019-05-19T04:56:09.477Z,21.05
2019-05-19T04:58:38.651Z,20.55
2019-05-19T05:01:07.761Z,20.25
2019-05-19T05:03:36.939Z,20.00
2019-05-19T05:06:06.128Z,21.12
2019-05-19T05:08:35.307Z,19.77
2019-05-19T05:11:04.467Z,20.37
2019-05-19T05:13:33.558Z,19.70
2019-05-19T05:16:02.693Z,21.35
2019-05-19T05:18:31.860Z,20.55
2019-05-19T05:21:01.036Z,18.45
2019-05-19T05:23:30.202Z,19.60
2019-05-19T05:25:59.499Z,19.62
2019-05-19T05:28:28.746Z,20.15
2019-05-19T05:30:57.944Z,19.25
2019-05-19T05:33:27.100Z,18.65
2019-05-19T05:35:56.285Z,19.82
2019-05-19T05:38:25.389Z,19.07
2019-05-19T05:40:54.560Z,19.15
2019-05-19T05:43:23.733Z,18.98
2019-05-19T05:45:52.980Z,18.45
2019-05-19T05:48:22.072Z,17.65
2019-05-19T05:50:51.224Z,18.60
2019-05-19T05:53:20.352Z,17.55
2019-05-19T05:55:49.464Z,18.40
2019-05-19T05:58:18.628Z,18.15
2019-05-19T06:00:53.948Z,19.32
2019-05-19T06:03:23.128Z,19.23
2019-05-19T06:05:52.307Z,19.42
2019-05-19T06:08:21.476Z,18.48
2019-05-19T06:10:50.671Z,19.23
2019-05-19T06:13:19.838Z,18.95
2019-05-19T06:15:48.940Z,18.20
2019-05-19T06:18:18.108Z,18.20
2019-05-19T06:20:47.219Z,18.23
2019-05-19T06:23:16.379Z,17.30
2019-05-19T06:25:45.493Z,17.57
2019-05-19T06:28:14.691Z,17.35
2019-05-19T06:30:44.256Z,17.90
2019-05-19T06:33:13.434Z,17.87
2019-05-19T06:35:42.616Z,17.60
2019-05-19T06:38:11.767Z,18.02
2019-05-19T06:40:40.966Z,17.75
2019-05-19T06:43:10.175Z,17.40
2019-05-19T06:45:39.365Z,17.35
2019-05-19T06:48:08.533Z,16.85
2019-05-19T06:50:40.657Z,16.80
2019-05-19T06:53:14.177Z,16.97
2019-05-19T06:55:39.401Z,16.30
2019-05-19T06:58:08.573Z,16.55
2019-05-19T07:00:37.741Z,16.62
2019-05-19T07:03:06.943Z,16.70
2019-05-19T07:05:36.096Z,15.98
2019-05-19T07:08:05.265Z,16.27
2019-05-19T07:10:34.375Z,16.20
2019-05-19T07:13:03.559Z,16.37
2019-05-19T07:15:32.709Z,15.43
2019-05-19T07:18:01.837Z,15.60
2019-05-19T07:20:31.006Z,15.83
2019-05-19T07:23:00.259Z,16.37
2019-05-19T07:25:29.355Z,15.50
2019-05-19T07:27:58.470Z,15.35
2019-05-19T07:30:27.637Z,16.07
2019-05-19T07:32:56.809Z,15.80
2019-05-19T07:35:25.949Z,16.02
2019-05-19T07:37:55.185Z,15.85
2019-05-19T07:40:24.359Z,16.20
2019-05-19T07:42:53.580Z,15.88
2019-05-19T07:45:22.831Z,15.85
2019-05-19T07:47:52.000Z,15.28
2019-05-19T07:50:21.213Z,15.45
2019-05-19T07:52:50.315Z,15.78
2019-05-19T07:55:19.505Z,15.05
2019-05-19T07:57:48.658Z,14.50
2019-05-19T08:00:18.637Z,14.65
2019-05-19T08:02:47.789Z,14.65
2019-05-19T08:05:16.983Z,14.43
2019-05-19T08:07:46.204Z,14.33
2019-05-19T08:10:15.756Z,14.30
2019-05-19T08:12:44.864Z,13.98
2019-05-19T08:15:14.201Z,14.23
2019-05-19T08:17:43.370Z,14.13
2019-05-19T08:20:14.122Z,13.93
2019-05-19T08:22:43.292Z,14.18
2019-05-19T08:25:12.608Z,14.10
2019-05-19T08:27:41.702Z,13.55
2019-05-19T08:30:11.729Z,14.15
2019-05-19T08:32:40.908Z,14.30
2019-05-19T08:35:10.855Z,14.87
2019-05-19T08:37:40.054Z,14.47
2019-05-19T08:40:09.557Z,13.70
2019-05-19T08:42:38.753Z,13.75
2019-05-19T08:45:09.455Z,13.83
2019-05-19T08:47:38.685Z,13.68
2019-05-19T08:50:08.599Z,13.75
2019-05-19T08:52:37.770Z,13.43
2019-05-19T08:55:07.348Z,14.28
2019-05-19T08:57:36.472Z,13.32
2019-05-19T09:00:06.984Z,13.72
2019-05-19T09:02:36.176Z,12.53
2019-05-19T09:05:07.139Z,13.55
2019-05-19T09:07:36.233Z,13.28
2019-05-19T09:10:07.520Z,12.75
2019-05-19T09:12:36.730Z,12.98
2019-05-19T09:15:06.585Z,13.55
2019-05-19T09:17:35.878Z,13.35
2019-05-19T09:20:05.839Z,13.32
2019-05-19T09:22:35.008Z,12.50
2019-05-19T09:25:07.173Z,12.73
2019-05-19T09:27:36.324Z,12.98
2019-05-19T09:30:08.312Z,12.75
2019-05-19T09:32:37.435Z,12.75
2019-05-19T09:35:08.335Z,13.08
2019-05-19T09:37:37.504Z,12.40
2019-05-19T09:40:07.776Z,12.70
2019-05-19T09:42:36.933Z,11.60
2019-05-19T09:45:07.976Z,12.53
2019-05-19T09:47:37.606Z,12.25
2019-05-19T09:50:07.990Z,11.83
2019-05-19T09:52:37.345Z,12.45
2019-05-19T09:55:07.454Z,11.78
2019-05-19T09:57:36.654Z,12.60
2019-05-19T10:00:06.578Z,11.85
2019-05-19T10:02:35.758Z,11.00
2019-05-19T10:05:06.432Z,10.98
2019-05-19T10:07:35.770Z,11.28
2019-05-19T10:10:10.782Z,10.85
2019-05-19T10:12:39.962Z,11.22
2019-05-19T10:15:11.092Z,10.60
2019-05-19T10:17:40.190Z,10.60
2019-05-19T10:20:10.189Z,10.30
2019-05-19T10:22:39.667Z,10.32
2019-05-19T10:25:21.692Z,10.70
2019-05-19T10:27:42.200Z,10.85
2019-05-19T10:30:12.048Z,10.80
2019-05-19T10:32:41.305Z,10.90
2019-05-19T10:35:11.520Z,10.08
2019-05-19T10:37:40.795Z,10.43
2019-05-19T10:40:10.326Z,10.18
2019-05-19T10:42:39.520Z,10.32
2019-05-19T10:45:09.617Z,10.30
2019-05-19T10:47:38.821Z,10.72
2019-05-19T10:50:08.321Z,10.08
2019-05-19T10:52:37.545Z,10.30
2019-05-19T10:55:06.988Z,10.03
2019-05-19T10:57:36.187Z,10.23
2019-05-19T11:00:06.906Z,9.98
2019-05-19T11:02:36.094Z,10.30
2019-05-19T11:05:11.201Z,10.05
2019-05-19T11:07:39.396Z,9.78
2019-05-19T11:10:09.121Z,9.28
2019-05-19T11:12:38.254Z,9.48
2019-05-19T11:15:08.266Z,9.08
2019-05-19T11:17:37.443Z,9.70
2019-05-19T11:20:06.790Z,9.48
2019-05-19T11:22:35.975Z,9.30
2019-05-19T11:25:05.775Z,8.83
2019-05-19T11:27:34.875Z,9.25
2019-05-19T11:30:08.409Z,9.08
2019-05-19T11:32:37.543Z,9.50
2019-05-19T11:35:07.392Z,9.23
2019-05-19T11:37:36.637Z,9.33
2019-05-19T11:40:05.763Z,9.03
2019-05-19T11:42:34.670Z,9.07
2019-05-19T11:45:05.701Z,8.70
2019-05-19T11:47:34.591Z,8.60
2019-05-19T11:50:04.219Z,8.90
2019-05-19T11:52:33.098Z,9.03
2019-05-19T11:55:01.978Z,8.80
2019-05-19T11:57:30.857Z,8.20
2019-05-19T11:59:59.770Z,9.17
2019-05-19T12:02:28.699Z,9.00
2019-05-19T12:04:57.577Z,9.23
2019-05-19T12:07:26.453Z,8.73
2019-05-19T12:09:55.260Z,8.80
2019-05-19T12:12:24.123Z,8.60
2019-05-19T12:14:52.955Z,8.47
2019-05-19T12:17:21.831Z,9.23
2019-05-19T12:19:50.740Z,9.07
2019-05-19T12:22:19.581Z,9.03
2019-05-19T12:24:48.511Z,9.07
2019-05-19T12:27:17.405Z,8.10
2019-05-19T12:29:46.262Z,8.57
2019-05-19T12:32:15.063Z,8.37
2019-05-19T12:34:43.955Z,8.80
2019-05-19T12:37:12.816Z,8.60
2019-05-19T12:39:41.621Z,8.50
2019-05-19T12:42:10.494Z,8.20
2019-05-19T12:44:39.376Z,8.03
2019-05-19T12:47:08.260Z,8.50
2019-05-19T12:49:37.123Z,8.13
2019-05-19T12:52:05.914Z,8.67
2019-05-19T12:54:34.815Z,8.87
2019-05-19T12:57:03.690Z,8.20
2019-05-19T12:59:32.599Z,8.43
2019-05-19T13:02:01.477Z,7.47
2019-05-19T13:04:30.342Z,7.87
2019-05-19T13:06:59.120Z,8.73
2019-05-19T13:09:28.024Z,8.03
2019-05-19T13:11:56.950Z,7.83
2019-05-19T13:14:25.768Z,7.33
2019-05-19T13:16:54.633Z,7.40
2019-05-19T13:19:23.531Z,7.90
2019-05-19T13:21:52.357Z,7.60
2019-05-19T13:24:21.138Z,7.17
2019-05-19T13:26:56.459Z,7.17
2019-05-19T13:29:20.422Z,6.87
2019-05-19T13:31:49.239Z,6.77
2019-05-19T13:34:18.086Z,6.93
2019-05-19T13:36:46.901Z,6.83
2019-05-19T13:39:15.771Z,6.57
2019-05-19T13:41:44.660Z,6.80
2019-05-19T13:44:13.434Z,6.40
2019-05-19T13:46:42.239Z,6.70
2019-05-19T13:49:11.088Z,6.20
2019-05-19T13:51:40.038Z,6.40
2019-05-19T13:54:08.882Z,6.37
2019-05-19T13:56:37.878Z,6.37
2019-05-19T13:59:06.809Z,7.03
2019-05-19T14:01:35.698Z,6.53
2019-05-19T14:04:04.789Z,6.87
2019-05-19T14:06:33.657Z,6.27
2019-05-19T14:09:02.686Z,6.23
2019-05-19T14:11:31.568Z,6.27
2019-05-19T14:14:00.429Z,6.43
2019-05-19T14:16:29.293Z,6.37
2019-05-19T14:18:58.095Z,6.90
2019-05-19T14:21:27.018Z,6.60
2019-05-19T14:23:55.848Z,6.50
2019-05-19T14:26:24.654Z,6.07
2019-05-19T14:28:53.490Z,6.87
2019-05-19T14:31:22.415Z,6.17
2019-05-19T14:33:51.235Z,6.20
2019-05-19T14:36:20.041Z,6.23
2019-05-19T14:39:05.431Z,6.10
2019-05-19T14:41:33.981Z,5.70
2019-05-19T14:44:03.479Z,6.37
2019-05-19T14:46:32.470Z,6.53
2019-05-19T14:49:01.334Z,6.17
2019-05-19T14:51:30.291Z,6.20
2019-05-19T14:53:59.524Z,5.87
2019-05-19T14:56:28.664Z,5.80
2019-05-19T14:58:57.463Z,6.20
2019-05-19T15:01:26.328Z,6.27
2019-05-19T15:03:55.254Z,6.13
2019-05-19T15:06:24.351Z,6.37
2019-05-19T15:08:53.138Z,6.70
2019-05-19T15:11:22.484Z,7.13
2019-05-19T15:13:51.714Z,6.33
2019-05-19T15:16:20.746Z,5.90
2019-05-19T15:18:49.772Z,5.73
2019-05-19T15:21:18.696Z,5.83
2019-05-19T15:23:47.645Z,5.87
2019-05-19T15:26:16.893Z,5.90
2019-05-19T15:28:46.125Z,6.00
2019-05-19T15:31:15.063Z,5.90
2019-05-19T15:33:44.024Z,5.97
2019-05-19T15:36:12.863Z,5.70
2019-05-19T15:38:41.799Z,5.27
2019-05-19T15:41:10.710Z,5.90
2019-05-19T15:43:39.561Z,5.77
2019-05-19T15:46:08.452Z,6.23
2019-05-19T15:48:37.279Z,6.30
2019-05-19T15:51:06.139Z,5.70
2019-05-19T15:53:34.920Z,5.80
2019-05-19T15:56:03.797Z,6.00
2019-05-19T15:58:33.217Z,6.27
2019-05-19T16:01:02.155Z,6.93
2019-05-19T16:03:31.009Z,6.33
2019-05-19T16:05:59.893Z,5.97
2019-05-19T16:08:28.741Z,6.00
2019-05-19T16:10:57.590Z,6.00
2019-05-19T16:13:26.382Z,5.60
2019-05-19T16:15:55.180Z,6.20
2019-05-19T16:18:24.052Z,5.53
2019-05-19T16:20:52.926Z,5.70
2019-05-19T16:23:21.882Z,5.93
2019-05-19T16:25:50.708Z,5.90
2019-05-19T16:28:30.200Z,6.50
2019-05-19T16:30:50.104Z,6.13
2019-05-19T16:33:18.959Z,5.67
2019-05-19T16:35:47.827Z,5.80
2019-05-19T16:38:16.723Z,5.33
2019-05-19T16:40:45.616Z,5.50
2019-05-19T16:43:14.450Z,5.50
2019-05-19T16:45:43.226Z,5.67
2019-05-19T16:48:12.122Z,5.97
2019-05-19T16:50:41.099Z,5.80
2019-05-19T16:53:10.051Z,5.43
2019-05-19T16:55:38.940Z,5.87
2019-05-19T16:58:20.798Z,6.00
2019-05-19T17:00:39.677Z,5.00
2019-05-19T17:03:08.571Z,5.33
2019-05-19T17:05:37.420Z,5.30
2019-05-19T17:08:06.366Z,5.33
2019-05-19T17:10:35.218Z,5.37
2019-05-19T17:13:04.075Z,5.10
2019-05-19T17:15:32.854Z,5.20
2019-05-19T17:18:01.733Z,5.20
2019-05-19T17:20:31.130Z,5.23
2019-05-19T17:23:00.087Z,6.10
2019-05-19T17:25:28.981Z,6.07
2019-05-19T17:27:59.643Z,5.13
2019-05-19T17:30:28.499Z,6.10
2019-05-19T17:32:57.345Z,5.53
2019-05-19T17:35:26.246Z,5.40
2019-05-19T17:37:55.163Z,5.53
2019-05-19T17:40:24.042Z,5.60
2019-05-19T17:42:52.895Z,5.33
2019-05-19T17:45:22.012Z,5.90
2019-05-19T17:47:53.300Z,5.53
2019-05-19T17:50:35.342Z,5.30
2019-05-19T17:53:04.662Z,5.60
2019-05-19T17:55:35.151Z,6.03
2019-05-19T17:58:04.524Z,5.93
2019-05-19T18:00:38.637Z,6.20
2019-05-19T18:03:07.691Z,5.60
2019-05-19T18:05:37.065Z,5.50
2019-05-19T18:08:06.374Z,5.73
2019-05-19T18:10:35.253Z,5.60
2019-05-19T18:13:04.240Z,5.57
2019-05-19T18:15:33.184Z,6.03
2019-05-19T18:18:02.049Z,5.80
2019-05-19T18:20:30.988Z,6.13
2019-05-19T18:22:59.868Z,5.50
2019-05-19T18:25:28.777Z,5.60
2019-05-19T18:27:57.709Z,6.30
2019-05-19T18:30:26.554Z,6.20
2019-05-19T18:32:55.466Z,5.73
2019-05-19T18:35:24.323Z,5.93
2019-05-19T18:37:53.202Z,5.60
2019-05-19T18:40:24.046Z,6.20
2019-05-19T18:42:52.941Z,5.53
2019-05-19T18:45:21.798Z,5.83
2019-05-19T18:47:50.686Z,6.13
2019-05-19T18:50:19.613Z,6.13
2019-05-19T18:52:48.609Z,6.10
2019-05-19T18:55:17.459Z,5.83
2019-05-19T18:57:47.350Z,6.90
2019-05-19T19:00:37.088Z,8.03
2019-05-19T19:03:06.697Z,7.00
2019-05-19T19:05:35.568Z,11.90
2019-05-19T19:08:04.915Z,8.05
2019-05-19T19:10:34.167Z,9.53
2019-05-19T19:13:03.329Z,8.08
2019-05-19T19:15:32.580Z,11.40
2019-05-19T19:18:01.758Z,7.58
2019-05-19T19:20:30.920Z,7.25
2019-05-19T19:23:00.010Z,6.67
2019-05-19T19:25:29.189Z,7.58
2019-05-19T19:27:58.345Z,9.50
2019-05-19T19:30:27.528Z,8.58
2019-05-19T19:32:56.702Z,9.88
2019-05-19T19:35:25.929Z,8.50
2019-05-19T19:37:55.087Z,7.25
2019-05-19T19:40:29.546Z,7.80
2019-05-19T19:42:59.806Z,7.70
2019-05-19T19:45:29.324Z,7.70
2019-05-19T19:47:58.556Z,7.50
2019-05-19T19:50:27.734Z,8.00
2019-05-19T19:52:56.913Z,7.58
2019-05-19T19:55:26.091Z,7.20
2019-05-19T19:57:55.193Z,6.92
2019-05-19T20:00:39.200Z,7.28
2019-05-19T20:03:08.735Z,7.22
2019-05-19T20:05:38.085Z,6.62
2019-05-19T20:08:07.668Z,6.90
2019-05-19T20:10:37.652Z,6.97
2019-05-19T20:13:06.911Z,7.05
2019-05-19T20:15:36.880Z,6.92
2019-05-19T20:18:05.981Z,7.85
2019-05-19T20:20:35.129Z,7.62
2019-05-19T20:23:04.306Z,7.75
2019-05-19T20:25:36.647Z,7.17
2019-05-19T20:28:04.430Z,8.03
2019-05-19T20:30:35.965Z,7.97
2019-05-19T20:33:04.487Z,8.00
2019-05-19T20:35:33.895Z,7.80
2019-05-19T20:38:02.999Z,8.10
2019-05-19T20:40:32.171Z,14.55
2019-05-19T20:43:01.338Z,7.75
2019-05-19T20:45:30.650Z,8.40
2019-05-19T20:47:59.819Z,9.03
2019-05-19T20:50:29.009Z,8.58
2019-05-19T20:52:58.162Z,8.90
2019-05-19T20:55:27.313Z,8.50
2019-05-19T20:57:56.529Z,8.20
2019-05-19T21:00:25.650Z,8.33
2019-05-19T21:02:54.910Z,12.10
2019-05-19T21:05:24.068Z,9.18
2019-05-19T21:07:53.167Z,8.50
2019-05-19T21:10:22.248Z,8.25
2019-05-19T21:12:51.495Z,9.40
2019-05-19T21:15:20.633Z,9.75
2019-05-19T21:17:49.750Z,9.20
2019-05-19T21:20:18.862Z,9.40
2019-05-19T21:22:48.092Z,9.98
2019-05-19T21:25:17.285Z,10.38
2019-05-19T21:27:46.461Z,10.18
2019-05-19T21:30:15.725Z,10.23
2019-05-19T21:32:44.903Z,10.38
2019-05-19T21:35:14.091Z,10.35
2019-05-19T21:37:43.265Z,10.00
2019-05-19T21:40:12.429Z,10.10
2019-05-19T21:42:41.548Z,10.50
2019-05-19T21:45:11.390Z,11.10
2019-05-19T21:47:40.583Z,11.53
2019-05-19T21:50:10.396Z,10.70
2019-05-19T21:52:39.582Z,11.35
2019-05-19T21:55:08.852Z,10.88
2019-05-19T21:57:38.049Z,11.08
2019-05-19T22:00:09.816Z,11.57
2019-05-19T22:02:39.258Z,10.58
2019-05-19T22:05:08.497Z,12.15
2019-05-19T22:07:51.200Z,11.35
2019-05-19T22:10:20.362Z,11.20
2019-05-19T22:12:49.620Z,11.88
2019-05-19T22:15:18.869Z,11.97
2019-05-19T22:17:47.970Z,12.25
2019-05-19T22:20:17.908Z,12.43
2019-05-19T22:22:47.132Z,13.03
2019-05-19T22:25:16.327Z,12.50
2019-05-19T22:27:45.498Z,12.90
2019-05-19T22:30:15.025Z,13.20
2019-05-19T22:32:44.116Z,12.80
2019-05-19T22:35:13.867Z,12.68
2019-05-19T22:37:43.039Z,12.85
2019-05-19T22:40:12.596Z,12.73
2019-05-19T22:42:41.711Z,12.37
2019-05-19T22:45:11.223Z,13.32
2019-05-19T22:47:40.327Z,12.43
2019-05-19T22:50:09.848Z,13.00
2019-05-19T22:52:39.014Z,12.50
2019-05-19T22:55:08.280Z,11.90
2019-05-19T22:57:37.454Z,11.85
2019-05-19T23:00:09.506Z,11.70
2019-05-19T23:02:38.781Z,12.00
2019-05-19T23:05:08.481Z,12.28
2019-05-19T23:07:37.610Z,12.07
2019-05-19T23:10:07.944Z,11.90
2019-05-19T23:12:37.124Z,11.95
2019-05-19T23:15:07.922Z,12.28
2019-05-19T23:17:37.175Z,11.80
2019-05-19T23:20:06.618Z,11.78
2019-05-19T23:22:35.808Z,11.55
2019-05-19T23:25:06.143Z,11.50
2019-05-19T23:27:35.341Z,11.97
2019-05-19T23:30:06.562Z,12.33
2019-05-19T23:32:35.755Z,11.57
2019-05-19T23:35:07.010Z,12.23
2019-05-19T23:37:36.122Z,11.95
2019-05-19T23:40:06.737Z,12.47
2019-05-19T23:42:36.096Z,13.08
2019-05-19T23:45:06.447Z,12.15
2019-05-19T23:47:35.651Z,13.13
2019-05-19T23:50:06.524Z,12.60
2019-05-19T23:52:35.670Z,13.28
2019-05-19T23:55:08.715Z,12.05
2019-05-19T23:57:37.898Z,13.32
